• vieta
  • image
  • image
  • image

Šiandien

Ketvirtadienis, 02 Spalis 2014

Orų prognozė

Šiauliai 2 °C
   

Orų prognozė aviacijai

[source: ADDS]
METAR
EYSA 012350Z AUTO 13005KT 9999NDV NCD 02/02 Q1032 =
TAF
TAF EYSA 012300Z 0200/0209 12008KT 7000 NSC TEMPO 0202/0206 3000 MIFG BR =
SR / SS: 04:32 / 16:01 UTC (EYSA 2014-10-02)

Lankytojai

Mes turime 7 svečius online

tic logo lt